sensor_id;sensor_type;location;lat;lon;timestamp;pressure;altitude;pressure_sealevel;temperature;humidity
57068;BME280;43391;47.448;18.904;2024-01-27T00:00:59;100106.91;;;5.14;100.00
57068;BME280;43391;47.448;18.904;2024-01-27T00:03:25;100103.63;;;5.05;100.00
57068;BME280;43391;47.448;18.904;2024-01-27T00:05:50;100091.69;;;5.01;100.00
57068;BME280;43391;47.448;18.904;2024-01-27T00:08:15;100075.50;;;4.96;100.00
57068;BME280;43391;47.448;18.904;2024-01-27T00:10:40;100097.88;;;4.92;100.00
57068;BME280;43391;47.448;18.904;2024-01-27T00:13:06;100080.72;;;4.93;100.00
57068;BME280;43391;47.448;18.904;2024-01-27T00:15:31;100095.13;;;5.02;100.00
57068;BME280;43391;47.448;18.904;2024-01-27T00:17:56;100107.97;;;5.03;100.00
57068;BME280;43391;47.448;18.904;2024-01-27T00:20:21;100103.66;;;5.04;100.00
57068;BME280;43391;47.448;18.904;2024-01-27T00:22:46;100112.91;;;5.13;100.00
57068;BME280;43391;47.448;18.904;2024-01-27T00:25:12;100124.81;;;5.20;100.00
57068;BME280;43391;47.448;18.904;2024-01-27T00:27:37;100123.13;;;5.19;100.00
57068;BME280;43391;47.448;18.904;2024-01-27T00:30:02;100135.13;;;5.18;100.00
57068;BME280;43391;47.448;18.904;2024-01-27T00:32:27;100128.28;;;5.17;100.00
57068;BME280;43391;47.448;18.904;2024-01-27T00:34:53;100130.72;;;5.25;100.00
57068;BME280;43391;47.448;18.904;2024-01-27T00:37:18;100152.19;;;5.24;100.00
57068;BME280;43391;47.448;18.904;2024-01-27T00:39:43;100136.78;;;5.21;100.00
57068;BME280;43391;47.448;18.904;2024-01-27T00:42:08;100142.88;;;5.17;100.00
57068;BME280;43391;47.448;18.904;2024-01-27T00:44:34;100164.31;;;5.17;100.00
57068;BME280;43391;47.448;18.904;2024-01-27T00:46:59;100161.88;;;5.11;100.00
57068;BME280;43391;47.448;18.904;2024-01-27T00:49:25;100176.56;;;5.06;100.00
57068;BME280;43391;47.448;18.904;2024-01-27T00:51:50;100174.06;;;5.00;100.00
57068;BME280;43391;47.448;18.904;2024-01-27T00:54:15;100206.59;;;5.04;100.00
57068;BME280;43391;47.448;18.904;2024-01-27T00:56:40;100215.06;;;5.09;100.00
57068;BME280;43391;47.448;18.904;2024-01-27T00:59:06;100217.66;;;5.08;100.00
57068;BME280;43391;47.448;18.904;2024-01-27T01:01:31;100234.84;;;5.07;100.00
57068;BME280;43391;47.448;18.904;2024-01-27T01:03:56;100234.84;;;5.07;100.00
57068;BME280;43391;47.448;18.904;2024-01-27T01:06:21;100253.63;;;5.12;100.00
57068;BME280;43391;47.448;18.904;2024-01-27T01:08:47;100243.38;;;5.11;100.00
57068;BME280;43391;47.448;18.904;2024-01-27T01:11:12;100257.16;;;5.07;100.00
57068;BME280;43391;47.448;18.904;2024-01-27T01:13:37;100245.13;;;5.09;100.00
57068;BME280;43391;47.448;18.904;2024-01-27T01:16:02;100255.41;;;5.09;100.00
57068;BME280;43391;47.448;18.904;2024-01-27T01:18:28;100254.66;;;5.03;100.00
57068;BME280;43391;47.448;18.904;2024-01-27T01:20:53;100248.75;;;4.97;100.00
57068;BME280;43391;47.448;18.904;2024-01-27T01:23:19;100262.53;;;4.94;100.00
57068;BME280;43391;47.448;18.904;2024-01-27T01:25:44;100263.41;;;4.93;100.00
57068;BME280;43391;47.448;18.904;2024-01-27T01:28:09;100258.28;;;4.90;100.00
57068;BME280;43391;47.448;18.904;2024-01-27T01:30:34;100266.88;;;4.90;100.00
57068;BME280;43391;47.448;18.904;2024-01-27T01:33:00;100269.47;;;4.89;100.00
57068;BME280;43391;47.448;18.904;2024-01-27T01:35:26;100275.50;;;4.88;100.00
57068;BME280;43391;47.448;18.904;2024-01-27T01:37:51;100268.59;;;4.90;100.00
57068;BME280;43391;47.448;18.904;2024-01-27T01:40:16;100273.72;;;4.90;100.00
57068;BME280;43391;47.448;18.904;2024-01-27T01:42:41;100281.47;;;4.87;100.00
57068;BME280;43391;47.448;18.904;2024-01-27T01:45:07;100268.63;;;4.87;100.00
57068;BME280;43391;47.448;18.904;2024-01-27T01:47:33;100287.47;;;4.89;100.00
57068;BME280;43391;47.448;18.904;2024-01-27T01:49:58;100290.94;;;4.86;100.00
57068;BME280;43391;47.448;18.904;2024-01-27T01:52:24;100315.88;;;4.83;100.00
57068;BME280;43391;47.448;18.904;2024-01-27T01:54:49;100318.47;;;4.81;100.00
57068;BME280;43391;47.448;18.904;2024-01-27T01:57:15;100318.50;;;4.76;100.00
57068;BME280;43391;47.448;18.904;2024-01-27T01:59:40;100325.41;;;4.76;100.00
57068;BME280;43391;47.448;18.904;2024-01-27T02:02:06;100341.72;;;4.75;100.00
57068;BME280;43391;47.448;18.904;2024-01-27T02:04:39;100343.44;;;4.73;100.00
57068;BME280;43391;47.448;18.904;2024-01-27T02:07:04;100336.66;;;4.67;100.00
57068;BME280;43391;47.448;18.904;2024-01-27T02:09:29;100334.91;;;4.69;100.00
57068;BME280;43391;47.448;18.904;2024-01-27T02:11:55;100337.47;;;4.71;100.00
57068;BME280;43391;47.448;18.904;2024-01-27T02:14:20;100332.38;;;4.66;100.00
57068;BME280;43391;47.448;18.904;2024-01-27T02:16:50;100330.75;;;4.60;100.00
57068;BME280;43391;47.448;18.904;2024-01-27T02:19:15;100329.94;;;4.57;100.00
57068;BME280;43391;47.448;18.904;2024-01-27T02:21:40;100326.53;;;4.56;100.00
57068;BME280;43391;47.448;18.904;2024-01-27T02:24:06;100312.88;;;4.51;100.00
57068;BME280;43391;47.448;18.904;2024-01-27T02:26:32;100302.59;;;4.49;100.00
57068;BME280;43391;47.448;18.904;2024-01-27T02:28:57;100313.78;;;4.47;100.00
57068;BME280;43391;47.448;18.904;2024-01-27T02:31:22;100292.41;;;4.43;100.00
57068;BME280;43391;47.448;18.904;2024-01-27T02:33:47;100299.41;;;4.35;100.00
57068;BME280;43391;47.448;18.904;2024-01-27T02:36:13;100302.00;;;4.33;100.00
57068;BME280;43391;47.448;18.904;2024-01-27T02:38:38;100294.31;;;4.29;100.00
57068;BME280;43391;47.448;18.904;2024-01-27T02:41:03;100303.75;;;4.28;100.00
57068;BME280;43391;47.448;18.904;2024-01-27T02:43:28;100290.09;;;4.24;100.00
57068;BME280;43391;47.448;18.904;2024-01-27T02:45:53;100318.44;;;4.18;100.00
57068;BME280;43391;47.448;18.904;2024-01-27T02:48:19;100320.13;;;4.21;100.00
57068;BME280;43391;47.448;18.904;2024-01-27T02:50:44;100340.75;;;4.16;100.00
57068;BME280;43391;47.448;18.904;2024-01-27T02:53:09;100353.63;;;4.13;100.00
57068;BME280;43391;47.448;18.904;2024-01-27T02:55:34;100360.50;;;4.12;100.00
57068;BME280;43391;47.448;18.904;2024-01-27T02:57:59;100356.25;;;4.08;100.00
57068;BME280;43391;47.448;18.904;2024-01-27T03:00:25;100353.75;;;4.04;100.00
57068;BME280;43391;47.448;18.904;2024-01-27T03:02:50;100370.00;;;4.03;100.00
57068;BME280;43391;47.448;18.904;2024-01-27T03:05:15;100359.88;;;3.92;100.00
57068;BME280;43391;47.448;18.904;2024-01-27T03:07:40;100361.66;;;3.82;100.00
57068;BME280;43391;47.448;18.904;2024-01-27T03:10:06;100360.88;;;3.77;100.00
57068;BME280;43391;47.448;18.904;2024-01-27T03:12:31;100372.84;;;3.78;100.00
57068;BME280;43391;47.448;18.904;2024-01-27T03:14:57;100379.69;;;3.80;100.00
57068;BME280;43391;47.448;18.904;2024-01-27T03:17:22;100396.84;;;3.75;100.00
57068;BME280;43391;47.448;18.904;2024-01-27T03:19:48;100400.28;;;3.74;100.00
57068;BME280;43391;47.448;18.904;2024-01-27T03:22:13;100407.19;;;3.67;100.00
57068;BME280;43391;47.448;18.904;2024-01-27T03:24:38;100417.47;;;3.64;100.00
57068;BME280;43391;47.448;18.904;2024-01-27T03:27:03;100426.09;;;3.58;100.00
57068;BME280;43391;47.448;18.904;2024-01-27T03:29:29;100443.19;;;3.58;100.00
57068;BME280;43391;47.448;18.904;2024-01-27T03:31:54;100441.50;;;3.58;100.00
57068;BME280;43391;47.448;18.904;2024-01-27T03:34:19;100449.16;;;3.60;100.00
57068;BME280;43391;47.448;18.904;2024-01-27T03:36:49;100446.63;;;3.58;100.00
57068;BME280;43391;47.448;18.904;2024-01-27T03:39:15;100447.47;;;3.59;100.00
57068;BME280;43391;47.448;18.904;2024-01-27T03:41:40;100456.91;;;3.55;100.00
57068;BME280;43391;47.448;18.904;2024-01-27T03:44:05;100462.03;;;3.57;100.00
57068;BME280;43391;47.448;18.904;2024-01-27T03:46:30;100467.19;;;3.52;100.00
57068;BME280;43391;47.448;18.904;2024-01-27T03:48:55;100467.25;;;3.48;100.00
57068;BME280;43391;47.448;18.904;2024-01-27T03:51:21;100468.13;;;3.43;100.00
57068;BME280;43391;47.448;18.904;2024-01-27T03:53:46;100469.00;;;3.42;100.00
57068;BME280;43391;47.448;18.904;2024-01-27T03:56:12;100477.56;;;3.41;100.00
57068;BME280;43391;47.448;18.904;2024-01-27T03:58:37;100474.16;;;3.36;100.00
57068;BME280;43391;47.448;18.904;2024-01-27T04:01:03;100486.09;;;3.42;100.00
57068;BME280;43391;47.448;18.904;2024-01-27T04:03:29;100488.66;;;3.42;100.00
57068;BME280;43391;47.448;18.904;2024-01-27T04:05:54;100495.53;;;3.40;100.00
57068;BME280;43391;47.448;18.904;2024-01-27T04:08:19;100495.53;;;3.37;100.00
57068;BME280;43391;47.448;18.904;2024-01-27T04:10:44;100499.00;;;3.31;100.00
57068;BME280;43391;47.448;18.904;2024-01-27T04:13:09;100499.00;;;3.28;100.00
57068;BME280;43391;47.448;18.904;2024-01-27T04:15:35;100502.44;;;3.28;100.00
57068;BME280;43391;47.448;18.904;2024-01-27T04:18:06;100509.28;;;3.31;100.00
57068;BME280;43391;47.448;18.904;2024-01-27T04:20:36;100509.28;;;3.28;100.00
57068;BME280;43391;47.448;18.904;2024-01-27T04:23:02;100510.16;;;3.25;100.00
57068;BME280;43391;47.448;18.904;2024-01-27T04:25:27;100499.06;;;3.22;100.00
57068;BME280;43391;47.448;18.904;2024-01-27T04:27:52;100508.41;;;3.32;100.00
57068;BME280;43391;47.448;18.904;2024-01-27T04:30:18;100515.25;;;3.35;100.00
57068;BME280;43391;47.448;18.904;2024-01-27T04:32:43;100526.34;;;3.38;100.00
57068;BME280;43391;47.448;18.904;2024-01-27T04:35:10;100546.88;;;3.37;100.00
57068;BME280;43391;47.448;18.904;2024-01-27T04:37:35;100550.31;;;3.37;100.00
57068;BME280;43391;47.448;18.904;2024-01-27T04:40:01;100546.91;;;3.30;100.00
57068;BME280;43391;47.448;18.904;2024-01-27T04:42:26;100546.03;;;3.36;100.00
57068;BME280;43391;47.448;18.904;2024-01-27T04:44:51;100554.56;;;3.43;100.00
57068;BME280;43391;47.448;18.904;2024-01-27T04:47:17;100551.97;;;3.46;100.00
57068;BME280;43391;47.448;18.904;2024-01-27T04:49:42;100540.81;;;3.50;100.00
57068;BME280;43391;47.448;18.904;2024-01-27T04:52:07;100559.69;;;3.43;100.00
57068;BME280;43391;47.448;18.904;2024-01-27T04:54:32;100566.56;;;3.33;100.00
57068;BME280;43391;47.448;18.904;2024-01-27T04:56:57;100570.88;;;3.28;100.00
57068;BME280;43391;47.448;18.904;2024-01-27T04:59:23;100571.75;;;3.27;100.00
57068;BME280;43391;47.448;18.904;2024-01-27T05:01:49;100564.06;;;3.19;100.00
57068;BME280;43391;47.448;18.904;2024-01-27T05:04:15;100570.06;;;3.16;100.00
57068;BME280;43391;47.448;18.904;2024-01-27T05:06:43;100581.19;;;3.11;100.00
57068;BME280;43391;47.448;18.904;2024-01-27T05:09:08;100581.25;;;3.01;100.00
57068;BME280;43391;47.448;18.904;2024-01-27T05:11:34;100575.25;;;3.01;100.00
57068;BME280;43391;47.448;18.904;2024-01-27T05:13:59;100579.56;;;2.97;100.00
57068;BME280;43391;47.448;18.904;2024-01-27T05:16:24;100577.84;;;2.98;100.00
57068;BME280;43391;47.448;18.904;2024-01-27T05:18:50;100577.84;;;2.98;100.00
57068;BME280;43391;47.448;18.904;2024-01-27T05:21:15;100585.56;;;2.96;100.00
57068;BME280;43391;47.448;18.904;2024-01-27T05:23:40;100582.97;;;2.93;100.00
57068;BME280;43391;47.448;18.904;2024-01-27T05:26:06;100588.97;;;2.92;100.00
57068;BME280;43391;47.448;18.904;2024-01-27T05:28:31;100592.38;;;2.94;100.00
57068;BME280;43391;47.448;18.904;2024-01-27T05:30:57;100599.25;;;2.95;100.00
57068;BME280;43391;47.448;18.904;2024-01-27T05:33:22;100600.06;;;2.94;100.00
57068;BME280;43391;47.448;18.904;2024-01-27T05:35:47;100611.19;;;2.91;100.00
57068;BME280;43391;47.448;18.904;2024-01-27T05:38:12;100607.75;;;2.94;100.00
57068;BME280;43391;47.448;18.904;2024-01-27T05:40:37;100607.75;;;2.94;100.00
57068;BME280;43391;47.448;18.904;2024-01-27T05:43:03;100607.78;;;2.99;100.00
57068;BME280;43391;47.448;18.904;2024-01-27T05:45:28;100622.28;;;2.98;100.00
57068;BME280;43391;47.448;18.904;2024-01-27T05:47:54;100634.25;;;2.99;100.00
57068;BME280;43391;47.448;18.904;2024-01-27T05:50:19;100635.16;;;2.95;100.00
57068;BME280;43391;47.448;18.904;2024-01-27T05:52:44;100656.53;;;2.89;100.00
57068;BME280;43391;47.448;18.904;2024-01-27T05:55:09;100672.75;;;2.85;100.00
57068;BME280;43391;47.448;18.904;2024-01-27T05:57:36;100675.34;;;2.79;100.00
57068;BME280;43391;47.448;18.904;2024-01-27T06:00:01;100690.72;;;2.73;100.00
57068;BME280;43391;47.448;18.904;2024-01-27T06:02:27;100695.00;;;2.77;100.00
57068;BME280;43391;47.448;18.904;2024-01-27T06:04:52;100692.44;;;2.78;100.00
57068;BME280;43391;47.448;18.904;2024-01-27T06:07:17;100686.44;;;2.75;100.00
57068;BME280;43391;47.448;18.904;2024-01-27T06:09:42;100691.59;;;2.72;100.00
57068;BME280;43391;47.448;18.904;2024-01-27T06:12:08;100697.56;;;2.71;100.00
57068;BME280;43391;47.448;18.904;2024-01-27T06:14:33;100697.56;;;2.68;100.00
57068;BME280;43391;47.448;18.904;2024-01-27T06:16:58;100699.25;;;2.65;100.00
57068;BME280;43391;47.448;18.904;2024-01-27T06:19:25;100702.69;;;2.64;100.00
57068;BME280;43391;47.448;18.904;2024-01-27T06:21:50;100692.44;;;2.61;100.00
57068;BME280;43391;47.448;18.904;2024-01-27T06:24:15;100695.84;;;2.63;100.00
57068;BME280;43391;47.448;18.904;2024-01-27T06:26:40;100701.00;;;2.63;100.00
57068;BME280;43391;47.448;18.904;2024-01-27T06:29:06;100702.69;;;2.66;100.00
57068;BME280;43391;47.448;18.904;2024-01-27T06:31:31;100707.84;;;2.68;100.00
57068;BME280;43391;47.448;18.904;2024-01-27T06:33:56;100711.22;;;2.68;100.00
57068;BME280;43391;47.448;18.904;2024-01-27T06:36:21;100712.97;;;2.69;100.00
57068;BME280;43391;47.448;18.904;2024-01-27T06:38:49;100708.66;;;2.70;100.00
57068;BME280;43391;47.448;18.904;2024-01-27T06:41:14;100723.22;;;2.74;100.00
57068;BME280;43391;47.448;18.904;2024-01-27T06:43:40;100703.56;;;2.73;100.00
57068;BME280;43391;47.448;18.904;2024-01-27T06:46:05;100723.22;;;2.77;100.00
57068;BME280;43391;47.448;18.904;2024-01-27T06:48:30;100724.91;;;2.73;100.00
57068;BME280;43391;47.448;18.904;2024-01-27T06:50:55;100712.97;;;2.75;100.00
57068;BME280;43391;47.448;18.904;2024-01-27T06:53:20;100720.66;;;2.74;100.00
57068;BME280;43391;47.448;18.904;2024-01-27T06:55:46;100706.97;;;2.72;100.00
57068;BME280;43391;47.448;18.904;2024-01-27T06:58:11;100694.16;;;2.72;100.00
57068;BME280;43391;47.448;18.904;2024-01-27T07:00:36;100716.38;;;2.74;100.00
57068;BME280;43391;47.448;18.904;2024-01-27T07:03:01;100721.50;;;2.76;100.00
57068;BME280;43391;47.448;18.904;2024-01-27T07:05:27;100711.22;;;2.77;100.00
57068;BME280;43391;47.448;18.904;2024-01-27T07:07:53;100707.81;;;2.80;100.00
57068;BME280;43391;47.448;18.904;2024-01-27T07:10:18;100714.66;;;2.84;100.00
57068;BME280;43391;47.448;18.904;2024-01-27T07:12:43;100715.53;;;2.85;100.00
57068;BME280;43391;47.448;18.904;2024-01-27T07:15:08;100714.66;;;2.86;100.00
57068;BME280;43391;47.448;18.904;2024-01-27T07:17:34;100732.63;;;2.87;100.00
57068;BME280;43391;47.448;18.904;2024-01-27T07:19:59;100730.91;;;2.85;100.00
57068;BME280;43391;47.448;18.904;2024-01-27T07:22:24;100742.03;;;2.88;100.00
57068;BME280;43391;47.448;18.904;2024-01-27T07:24:49;100739.47;;;2.88;100.00
57068;BME280;43391;47.448;18.904;2024-01-27T07:27:18;100750.56;;;2.92;100.00
57068;BME280;43391;47.448;18.904;2024-01-27T07:29:43;100749.72;;;2.95;100.00
57068;BME280;43391;47.448;18.904;2024-01-27T07:32:09;100751.41;;;2.97;100.00
57068;BME280;43391;47.448;18.904;2024-01-27T07:34:39;100759.09;;;3.02;100.00
57068;BME280;43391;47.448;18.904;2024-01-27T07:37:04;100760.81;;;3.04;100.00
57068;BME280;43391;47.448;18.904;2024-01-27T07:39:29;100756.53;;;3.11;100.00
57068;BME280;43391;47.448;18.904;2024-01-27T07:41:54;100758.25;;;3.14;100.00
57068;BME280;43391;47.448;18.904;2024-01-27T07:44:19;100748.81;;;3.16;100.00
57068;BME280;43391;47.448;18.904;2024-01-27T07:46:45;100749.66;;;3.21;100.00
57068;BME280;43391;47.448;18.904;2024-01-27T07:49:10;100752.25;;;3.23;100.00
57068;BME280;43391;47.448;18.904;2024-01-27T07:51:37;100761.66;;;3.30;100.00
57068;BME280;43391;47.448;18.904;2024-01-27T07:54:03;100757.38;;;3.35;100.00
57068;BME280;43391;47.448;18.904;2024-01-27T07:56:28;100759.91;;;3.37;100.00
57068;BME280;43391;47.448;18.904;2024-01-27T07:58:53;100772.75;;;3.38;100.00
57068;BME280;43391;47.448;18.904;2024-01-27T08:01:19;100775.31;;;3.41;100.00
57068;BME280;43391;47.448;18.904;2024-01-27T08:03:44;100779.59;;;3.45;100.00
57068;BME280;43391;47.448;18.904;2024-01-27T08:06:27;100795.84;;;3.51;100.00
57068;BME280;43391;47.448;18.904;2024-01-27T08:08:52;100795.81;;;3.57;100.00
57068;BME280;43391;47.448;18.904;2024-01-27T08:11:17;100809.50;;;3.59;100.00
57068;BME280;43391;47.448;18.904;2024-01-27T08:13:43;100814.66;;;3.62;100.00
57068;BME280;43391;47.448;18.904;2024-01-27T08:16:08;100814.63;;;3.68;100.00
57068;BME280;43391;47.448;18.904;2024-01-27T08:18:37;100817.16;;;3.81;100.00
57068;BME280;43391;47.448;18.904;2024-01-27T08:21:03;100821.41;;;3.91;100.00
57068;BME280;43391;47.448;18.904;2024-01-27T08:23:29;100805.16;;;3.88;100.00
57068;BME280;43391;47.448;18.904;2024-01-27T08:25:54;100815.44;;;3.91;100.00
57068;BME280;43391;47.448;18.904;2024-01-27T08:28:19;100807.69;;;3.95;100.00
57068;BME280;43391;47.448;18.904;2024-01-27T08:30:44;100805.09;;;4.00;100.00
57068;BME280;43391;47.448;18.904;2024-01-27T08:33:10;100813.66;;;3.99;100.00
57068;BME280;43391;47.448;18.904;2024-01-27T08:35:35;100814.50;;;4.07;100.00
57068;BME280;43391;47.448;18.904;2024-01-27T08:38:00;100819.66;;;4.06;100.00
57068;BME280;43391;47.448;18.904;2024-01-27T08:40:25;100823.91;;;4.13;100.00
57068;BME280;43391;47.448;18.904;2024-01-27T08:42:50;100810.19;;;4.17;100.00
57068;BME280;43391;47.448;18.904;2024-01-27T08:45:16;100826.44;;;4.22;100.00
57068;BME280;43391;47.448;18.904;2024-01-27T08:47:41;100836.72;;;4.27;100.00
57068;BME280;43391;47.448;18.904;2024-01-27T08:50:06;100822.97;;;4.33;100.00
57068;BME280;43391;47.448;18.904;2024-01-27T08:52:32;100839.22;;;4.38;100.00
57068;BME280;43391;47.448;18.904;2024-01-27T08:54:57;100844.31;;;4.44;100.00
57068;BME280;43391;47.448;18.904;2024-01-27T08:57:22;100846.84;;;4.55;100.00
57068;BME280;43391;47.448;18.904;2024-01-27T08:59:47;100846.03;;;4.53;98.45
57068;BME280;43391;47.448;18.904;2024-01-27T09:02:12;100842.56;;;4.52;97.77
57068;BME280;43391;47.448;18.904;2024-01-27T09:04:37;100850.25;;;4.62;97.52
57068;BME280;43391;47.448;18.904;2024-01-27T09:07:03;100844.25;;;4.61;94.48
57068;BME280;43391;47.448;18.904;2024-01-27T09:09:28;100845.16;;;4.52;94.07
57068;BME280;43391;47.448;18.904;2024-01-27T09:11:54;100854.56;;;4.52;95.06
57068;BME280;43391;47.448;18.904;2024-01-27T09:14:19;100853.66;;;4.62;95.91
57068;BME280;43391;47.448;18.904;2024-01-27T09:16:44;100843.38;;;4.64;93.13
57068;BME280;43391;47.448;18.904;2024-01-27T09:19:10;100871.66;;;4.67;94.43
57068;BME280;43391;47.448;18.904;2024-01-27T09:21:36;100850.16;;;4.71;93.99
57068;BME280;43391;47.448;18.904;2024-01-27T09:24:02;100854.44;;;4.78;92.36
57068;BME280;43391;47.448;18.904;2024-01-27T09:26:27;100851.91;;;4.71;91.99
57068;BME280;43391;47.448;18.904;2024-01-27T09:28:52;100844.97;;;4.81;92.42
57068;BME280;43391;47.448;18.904;2024-01-27T09:31:23;100838.91;;;4.94;91.60
57068;BME280;43391;47.448;18.904;2024-01-27T09:33:50;100833.75;;;4.92;89.08
57068;BME280;43391;47.448;18.904;2024-01-27T09:36:16;100840.66;;;4.89;90.15
57068;BME280;43391;47.448;18.904;2024-01-27T09:38:42;100831.22;;;4.86;88.55
57068;BME280;43391;47.448;18.904;2024-01-27T09:41:07;100832.09;;;4.85;89.30
57068;BME280;43391;47.448;18.904;2024-01-27T09:43:32;100842.34;;;4.91;89.28
57068;BME280;43391;47.448;18.904;2024-01-27T09:45:57;100836.28;;;4.99;88.06
57068;BME280;43391;47.448;18.904;2024-01-27T09:48:23;100845.69;;;5.04;86.38
57068;BME280;43391;47.448;18.904;2024-01-27T09:50:48;100855.09;;;5.05;84.88
57068;BME280;43391;47.448;18.904;2024-01-27T09:53:14;100871.38;;;5.08;83.65
57068;BME280;43391;47.448;18.904;2024-01-27T09:55:39;100870.50;;;5.15;85.01
57068;BME280;43391;47.448;18.904;2024-01-27T09:58:05;100877.28;;;5.24;83.00
57068;BME280;43391;47.448;18.904;2024-01-27T10:00:30;100881.56;;;5.25;80.84
57068;BME280;43391;47.448;18.904;2024-01-27T10:02:55;100885.00;;;5.21;81.42
57068;BME280;43391;47.448;18.904;2024-01-27T10:05:22;100890.09;;;5.31;80.50
57068;BME280;43391;47.448;18.904;2024-01-27T10:07:48;100887.47;;;5.39;79.94
57068;BME280;43391;47.448;18.904;2024-01-27T10:10:13;100864.28;;;5.39;77.22
57068;BME280;43391;47.448;18.904;2024-01-27T10:12:41;100875.41;;;5.44;77.25
57068;BME280;43391;47.448;18.904;2024-01-27T10:15:17;100867.59;;;5.52;75.70
57068;BME280;43391;47.448;18.904;2024-01-27T10:17:43;100865.84;;;5.54;75.80
57068;BME280;43391;47.448;18.904;2024-01-27T10:20:08;100871.88;;;5.56;76.72
57068;BME280;43391;47.448;18.904;2024-01-27T10:22:38;100868.56;;;5.42;74.49
57068;BME280;43391;47.448;18.904;2024-01-27T10:25:04;100855.53;;;5.57;76.67
57068;BME280;43391;47.448;18.904;2024-01-27T10:27:29;100866.59;;;5.69;76.10
57068;BME280;43391;47.448;18.904;2024-01-27T10:29:55;100859.69;;;5.72;73.83
57068;BME280;43391;47.448;18.904;2024-01-27T10:32:20;100869.00;;;5.84;74.00
57068;BME280;43391;47.448;18.904;2024-01-27T10:34:48;100881.00;;;5.87;72.68
57068;BME280;43391;47.448;18.904;2024-01-27T10:37:13;100865.59;;;5.82;70.94
57068;BME280;43391;47.448;18.904;2024-01-27T10:39:39;100869.94;;;5.77;70.23
57068;BME280;43391;47.448;18.904;2024-01-27T10:42:04;100872.38;;;5.90;71.03
57068;BME280;43391;47.448;18.904;2024-01-27T10:44:30;100873.94;;;6.09;72.10
57068;BME280;43391;47.448;18.904;2024-01-27T10:46:56;100872.97;;;6.20;69.42
57068;BME280;43391;47.448;18.904;2024-01-27T10:49:23;100865.44;;;5.98;70.56
57068;BME280;43391;47.448;18.904;2024-01-27T10:51:53;100868.13;;;5.85;68.74
57068;BME280;43391;47.448;18.904;2024-01-27T10:54:21;100875.78;;;5.93;70.57
57068;BME280;43391;47.448;18.904;2024-01-27T10:56:48;100887.69;;;6.08;66.52
57068;BME280;43391;47.448;18.904;2024-01-27T10:59:13;100889.38;;;6.11;68.30
57068;BME280;43391;47.448;18.904;2024-01-27T11:01:41;100888.66;;;5.93;67.75
57068;BME280;43391;47.448;18.904;2024-01-27T11:04:06;100883.50;;;5.95;66.62
57068;BME280;43391;47.448;18.904;2024-01-27T11:06:32;100882.94;;;5.66;66.85
57068;BME280;43391;47.448;18.904;2024-01-27T11:08:59;100881.28;;;5.59;66.87
57068;BME280;43391;47.448;18.904;2024-01-27T11:11:28;100886.47;;;5.54;67.77
57068;BME280;43391;47.448;18.904;2024-01-27T11:13:54;100889.78;;;5.66;68.23
57068;BME280;43391;47.448;18.904;2024-01-27T11:16:19;100895.66;;;5.85;68.72
57068;BME280;43391;47.448;18.904;2024-01-27T11:18:44;100870.59;;;5.96;67.69
57068;BME280;43391;47.448;18.904;2024-01-27T11:21:14;100883.75;;;5.68;67.32
57068;BME280;43391;47.448;18.904;2024-01-27T11:23:40;100880.50;;;5.48;66.76
57068;BME280;43391;47.448;18.904;2024-01-27T11:26:05;100883.19;;;5.34;68.01
57068;BME280;43391;47.448;18.904;2024-01-27T11:28:31;100872.13;;;5.22;68.77
57068;BME280;43391;47.448;18.904;2024-01-27T11:30:56;100864.47;;;5.17;67.38
57068;BME280;43391;47.448;18.904;2024-01-27T11:33:24;100862.81;;;5.05;68.54
57068;BME280;43391;47.448;18.904;2024-01-27T11:35:59;100851.66;;;5.05;69.17
57068;BME280;43391;47.448;18.904;2024-01-27T11:38:24;100843.06;;;5.08;71.72
57068;BME280;43391;47.448;18.904;2024-01-27T11:40:53;100850.59;;;5.34;71.17
57068;BME280;43391;47.448;18.904;2024-01-27T11:43:18;100849.50;;;5.60;71.55
57068;BME280;43391;47.448;18.904;2024-01-27T11:45:54;100857.97;;;5.75;72.09
57068;BME280;43391;47.448;18.904;2024-01-27T11:48:19;100858.94;;;5.61;71.77
57068;BME280;43391;47.448;18.904;2024-01-27T11:50:45;100849.66;;;5.40;70.67
57068;BME280;43391;47.448;18.904;2024-01-27T11:53:10;100834.34;;;5.29;71.45
57068;BME280;43391;47.448;18.904;2024-01-27T11:55:35;100854.88;;;5.34;73.09
57068;BME280;43391;47.448;18.904;2024-01-27T11:58:01;100849.38;;;5.71;72.46
57068;BME280;43391;47.448;18.904;2024-01-27T12:00:26;100840.50;;;5.97;70.72
57068;BME280;43391;47.448;18.904;2024-01-27T12:02:51;100861.94;;;6.07;71.06
57068;BME280;43391;47.448;18.904;2024-01-27T12:05:16;100834.72;;;5.79;66.26
57068;BME280;43391;47.448;18.904;2024-01-27T12:07:42;100848.66;;;5.58;66.51
57068;BME280;43391;47.448;18.904;2024-01-27T12:10:07;100834.94;;;5.56;67.22
57068;BME280;43391;47.448;18.904;2024-01-27T12:12:32;100839.38;;;5.40;69.61
57068;BME280;43391;47.448;18.904;2024-01-27T12:14:59;100836.72;;;5.48;69.37
57068;BME280;43391;47.448;18.904;2024-01-27T12:17:25;100832.91;;;5.88;68.25
57068;BME280;43391;47.448;18.904;2024-01-27T12:19:52;100839.78;;;5.85;67.93
57068;BME280;43391;47.448;18.904;2024-01-27T12:24:45;100856.03;;;5.95;67.90
57068;BME280;43391;47.448;18.904;2024-01-27T12:27:10;100874.50;;;6.35;65.79
57068;BME280;43391;47.448;18.904;2024-01-27T12:29:37;100870.16;;;6.37;65.12
57068;BME280;43391;47.448;18.904;2024-01-27T12:32:02;100863.50;;;6.19;66.50
57068;BME280;43391;47.448;18.904;2024-01-27T12:34:28;100886.03;;;6.03;70.13
57068;BME280;43391;47.448;18.904;2024-01-27T12:36:53;100865.53;;;5.89;69.89